Time;durP1;ratioP1;P1;durP2;ratioP2;P2;SDS_P1;SDS_P2;PMS_P1;PMS_P2;Temp;Humidity;BMP_temperature;BMP_pressure;BME280_temperature;BME280_humidity;BME280_pressure;Samples;Min_cycle;Max_cycle;Signal;HPM_P1;HPM_P2
2023/02/02 00:00:21;;;;;;;20.58;1.85;;;;;;;-146.25;77.88;52424.97;2096133;28;41079;-75
2023/02/02 00:01:24;;;;;;;26.85;2.72;;;;;;;-146.25;77.60;52435.09;2097037;28;20045;-75
2023/02/02 00:02:26;;;;;;;18.33;1.83;;;;;;;-146.25;77.68;52420.91;2104909;28;39272;-75
2023/02/02 00:03:30;;;;;;;19.00;1.90;;;;;;;-146.25;77.64;52457.41;2104861;28;37566;-75
2023/02/02 00:04:34;;;;;;;19.33;2.20;;;;;;;-146.25;77.56;52416.84;2104990;28;36942;-76
2023/02/02 00:05:36;;;;;;;21.73;2.28;;;;;;;-146.25;77.50;52463.50;2096469;28;20156;-76
2023/02/02 00:06:38;;;;;;;28.83;2.60;;;;;;;-146.25;76.76;52429.03;2096481;28;42354;-75
2023/02/02 00:07:40;;;;;;;17.85;2.05;;;;;;;-146.25;76.63;52420.91;2104989;28;37596;-75
2023/02/02 00:08:41;;;;;;;18.58;2.35;;;;;;;-146.25;76.45;52441.19;2104679;28;38194;-75
2023/02/02 00:09:43;;;;;;;14.38;1.60;;;;;;;-146.25;76.61;52449.31;2096109;28;39586;-76
2023/02/02 00:10:45;;;;;;;18.52;2.40;;;;;;;-146.25;77.37;52467.56;2097054;28;20071;-75
2023/02/02 00:11:50;;;;;;;21.50;2.15;;;;;;;-146.25;76.60;52453.34;2095768;28;38596;-76
2023/02/02 00:12:56;;;;;;;24.00;2.67;;;;;;;-146.25;76.65;52469.56;2096555;28;36414;-75
2023/02/02 00:13:59;;;;;;;24.70;2.55;;;;;;;-146.25;77.54;52437.13;2104338;28;38027;-75
2023/02/02 00:15:04;;;;;;;20.02;2.13;;;;;;;-146.25;77.83;52453.34;2105895;28;20162;-74
2023/02/02 00:16:35;;;;;;;22.50;1.95;;;;;;;-146.25;78.78;52467.56;2105585;28;20110;-74
2023/02/02 00:17:36;;;;;;;20.83;2.15;;;;;;;-146.25;77.85;52392.53;2104706;28;40683;-75
2023/02/02 00:18:38;;;;;;;18.13;2.08;;;;;;;-146.25;78.43;52418.88;2106017;28;20044;-75
2023/02/02 00:19:40;;;;;;;25.73;2.60;;;;;;;-146.25;78.71;52443.22;2105130;28;42903;-75
2023/02/02 00:20:48;;;;;;;21.23;2.00;;;;;;;-146.25;78.80;52427.00;2104593;28;34956;-75
2023/02/02 00:21:49;;;;;;;24.90;2.47;;;;;;;-146.25;78.45;52424.97;2105804;28;20849;-75
2023/02/02 00:22:51;;;;;;;20.85;1.92;;;;;;;-146.25;78.89;52453.34;2095879;28;34681;-75
2023/02/02 00:23:53;;;;;;;19.70;2.05;;;;;;;-146.25;77.80;52447.28;2087459;28;41827;-75
2023/02/02 00:24:55;;;;;;;20.58;2.13;;;;;;;-146.25;77.70;52449.31;2096120;28;38723;-74
2023/02/02 00:25:56;;;;;;;19.77;2.22;;;;;;;-146.25;77.93;52473.63;2104457;28;40703;-75
2023/02/02 00:26:59;;;;;;;26.05;2.72;;;;;;;-146.25;78.32;52441.19;2105678;28;20055;-75
2023/02/02 00:28:01;;;;;;;21.52;2.40;;;;;;;-146.25;78.68;52447.28;2105025;28;29490;-75
2023/02/02 00:29:06;;;;;;;19.75;1.92;;;;;;;-146.25;78.14;52437.13;2104924;28;36330;-75
2023/02/02 00:30:09;;;;;;;24.95;2.47;;;;;;;-146.25;78.65;52445.25;2096538;28;20053;-75
2023/02/02 00:31:12;;;;;;;19.15;2.35;;;;;;;-146.25;78.33;52443.22;2097397;28;20044;-75
2023/02/02 00:32:13;;;;;;;20.67;2.15;;;;;;;-146.25;79.35;52441.19;2096197;28;21370;-75
2023/02/02 00:33:15;;;;;;;20.83;2.00;;;;;;;-146.25;79.13;52439.16;2096467;28;20037;-75
2023/02/02 00:34:17;;;;;;;26.75;2.70;;;;;;;-146.25;79.69;52463.50;2104589;28;27730;-76
2023/02/02 00:35:20;;;;;;;22.23;2.30;;;;;;;-146.25;79.65;52437.13;2096562;28;20159;-75
2023/02/02 00:36:22;;;;;;;26.45;1.83;;;;;;;-146.25;79.47;52457.41;2095924;28;37586;-76
2023/02/02 00:37:24;;;;;;;27.02;2.50;;;;;;;-146.25;79.57;52380.38;2095946;28;27398;-75
2023/02/02 00:38:26;;;;;;;17.60;2.42;;;;;;;-146.25;79.15;52427.00;2096247;28;20044;-75
2023/02/02 00:39:28;;;;;;;19.52;1.98;;;;;;;-146.25;78.69;52433.06;2096194;28;32892;-75
2023/02/02 00:40:30;;;;;;;23.60;3.00;;;;;;;-146.25;79.46;52402.66;2104482;28;40089;-75
2023/02/02 00:41:32;;;;;;;23.15;2.28;;;;;;;-146.25;78.91;52441.19;2105081;28;20888;-76
2023/02/02 00:42:34;;;;;;;23.52;2.47;;;;;;;-146.25;79.18;52422.94;2105111;28;34095;-75
2023/02/02 00:43:35;;;;;;;18.08;1.65;;;;;;;-146.25;79.06;52433.06;2104795;28;37329;-75
2023/02/02 00:45:58;;;;;;;21.48;1.90;;;;;;;-146.25;78.92;52427.00;2099011;28;29665;-75
2023/02/02 00:47:00;;;;;;;19.45;1.90;;;;;;;-146.25;79.54;52455.38;2105349;28;20036;-75
2023/02/02 00:48:03;;;;;;;30.00;3.70;;;;;;;-146.25;78.77;52435.09;2095131;28;37929;-75
2023/02/02 00:49:07;;;;;;;19.67;1.95;;;;;;;-146.25;79.31;52414.84;2095942;28;35240;-75
2023/02/02 00:50:12;;;;;;;17.48;2.17;;;;;;;-146.25;80.46;52445.25;2095875;28;32159;-75
2023/02/02 00:51:14;;;;;;;18.38;1.77;;;;;;;-146.25;80.40;52412.81;2096200;28;33446;-75
2023/02/02 00:52:16;;;;;;;24.88;2.40;;;;;;;-146.25;80.07;52418.88;2104408;28;20071;-76
2023/02/02 00:53:18;;;;;;;24.30;2.70;;;;;;;-146.25;80.78;52414.84;2105251;28;20825;-75
2023/02/02 00:54:21;;;;;;;25.88;2.58;;;;;;;-146.25;80.94;52457.41;2096044;28;20099;-75
2023/02/02 00:55:22;;;;;;;21.08;2.05;;;;;;;-146.25;81.17;52451.31;2095725;28;33076;-74
2023/02/02 00:56:25;;;;;;;20.02;2.05;;;;;;;-146.25;81.12;52453.34;2104906;28;32571;-75
2023/02/02 00:57:26;;;;;;;22.40;2.10;;;;;;;-146.25;81.05;52429.03;2096078;28;20053;-75
2023/02/02 00:58:28;;;;;;;21.80;1.80;;;;;;;-146.25;81.16;52416.84;2095699;28;40378;-75
2023/02/02 00:59:30;;;;;;;14.65;2.05;;;;;;;-146.25;81.57;52441.19;2095663;28;26667;-75
2023/02/02 01:00:31;;;;;;;23.50;1.98;;;;;;;-146.25;81.00;52420.91;2095908;28;29299;-75
2023/02/02 01:01:33;;;;;;;23.52;2.28;;;;;;;-146.25;81.71;52441.19;2095872;28;26588;-76
2023/02/02 01:02:35;;;;;;;24.88;2.58;;;;;;;-146.25;81.44;52475.66;2096594;28;20037;-75
2023/02/02 01:03:37;;;;;;;19.45;2.05;;;;;;;-146.25;81.32;52463.50;2087761;28;20050;-75
2023/02/02 01:04:39;;;;;;;23.25;2.53;;;;;;;-146.25;81.42;52441.19;2088366;28;28149;-75
2023/02/02 01:05:40;;;;;;;24.98;2.15;;;;;;;-146.25;80.87;52431.06;2095186;28;40052;-75
2023/02/02 01:06:42;;;;;;;21.38;2.20;;;;;;;-146.25;81.31;52445.25;2095857;28;29834;-76
2023/02/02 01:07:45;;;;;;;24.20;2.80;;;;;;;-146.25;81.39;52455.38;2096007;28;26287;-75
2023/02/02 01:08:48;;;;;;;21.50;2.20;;;;;;;-146.25;81.25;52437.13;2096061;28;20041;-75
2023/02/02 01:09:50;;;;;;;22.58;2.40;;;;;;;-146.25;81.75;52453.34;2088019;28;28477;-75
2023/02/02 01:10:52;;;;;;;20.20;1.85;;;;;;;-146.25;80.84;52451.31;2096195;28;35200;-75
2023/02/02 01:11:56;;;;;;;21.10;2.03;;;;;;;-146.25;81.26;52463.50;2087419;28;20050;-75
2023/02/02 01:13:01;;;;;;;21.17;2.20;;;;;;;-146.25;81.83;52433.06;2089099;28;20029;-75
2023/02/02 01:14:03;;;;;;;23.00;2.55;;;;;;;-146.25;81.62;52453.34;2103870;28;40609;-75
2023/02/02 01:15:06;;;;;;;22.17;2.33;;;;;;;-146.25;82.63;52469.56;2104753;28;24759;-75
2023/02/02 01:16:10;;;;;;;25.83;2.72;;;;;;;-146.25;81.85;52453.34;2095542;28;30888;-74
2023/02/02 01:17:13;;;;;;;23.08;2.17;;;;;;;-146.25;82.42;52477.69;2087884;28;31797;-74
2023/02/02 01:18:15;;;;;;;24.05;2.58;;;;;;;-146.25;82.44;52439.16;2096233;28;34415;-75
2023/02/02 01:19:19;;;;;;;18.60;2.30;;;;;;;-146.25;82.87;52475.66;2104565;28;39102;-75
2023/02/02 01:20:20;;;;;;;19.67;1.92;;;;;;;-146.25;82.81;52410.78;2104654;28;27284;-75
2023/02/02 01:21:22;;;;;;;19.75;2.25;;;;;;;-146.25;82.95;52435.09;2104756;28;27677;-75
2023/02/02 01:22:25;;;;;;;19.40;2.03;;;;;;;-146.25;83.01;52455.38;2087735;28;20096;-75
2023/02/02 01:23:27;;;;;;;24.88;2.65;;;;;;;-146.25;82.14;52427.00;2079127;28;39701;-75
2023/02/02 01:24:29;;;;;;;22.35;1.92;;;;;;;-146.25;82.92;52447.28;2095844;28;28465;-74
2023/02/02 01:25:32;;;;;;;26.13;2.08;;;;;;;-146.25;82.04;52453.34;2095670;28;31589;-73
2023/02/02 01:26:34;;;;;;;16.10;1.92;;;;;;;-146.25;82.44;52481.75;2095977;28;38502;-73
2023/02/02 01:27:35;;;;;;;27.27;2.45;;;;;;;-146.25;82.64;52463.50;2086870;28;40431;-73
2023/02/02 01:28:38;;;;;;;27.75;1.85;;;;;;;-146.25;83.57;52449.31;2087155;28;27556;-75
2023/02/02 01:29:40;;;;;;;22.08;2.28;;;;;;;-146.25;83.17;52457.41;2104727;28;20924;-75
2023/02/02 01:30:42;;;;;;;24.13;2.22;;;;;;;-146.25;83.69;52429.03;2095658;28;40296;-75
2023/02/02 01:31:44;;;;;;;22.50;2.65;;;;;;;-146.25;83.66;52473.63;2096335;28;20094;-75
2023/02/02 01:32:48;;;;;;;26.30;2.50;;;;;;;-146.25;83.78;52424.97;2104806;28;24557;-76
2023/02/02 01:33:50;;;;;;;19.90;1.95;;;;;;;-146.25;83.33;52457.41;2095764;28;32631;-75
2023/02/02 01:34:51;;;;;;;23.52;2.40;;;;;;;-146.25;83.49;52471.59;2096310;28;28409;-75
2023/02/02 01:35:55;;;;;;;24.55;2.40;;;;;;;-146.25;84.62;52437.13;2104781;28;33014;-74
2023/02/02 01:36:57;;;;;;;26.40;2.85;;;;;;;-146.25;84.31;52485.81;2087209;28;20990;-74
2023/02/02 01:37:59;;;;;;;23.73;2.65;;;;;;;-146.25;84.89;52424.97;2087427;28;41730;-75
2023/02/02 01:39:01;;;;;;;21.02;2.33;;;;;;;-146.25;84.78;52471.59;2104408;28;24046;-73
2023/02/02 01:40:04;;;;;;;14.70;1.88;;;;;;;-146.25;85.07;52481.75;2087532;28;25019;-74
2023/02/02 01:41:10;;;;;;;23.55;2.25;;;;;;;-146.25;85.26;52443.22;2087379;28;34169;-75
2023/02/02 01:42:19;;;;;;;24.25;3.22;;;;;;;-146.25;85.34;52433.06;2095955;28;20049;-75
2023/02/02 01:44:01;;;;;;;23.30;2.35;;;;;;;-146.25;85.84;52497.97;2088094;28;33450;-75
2023/02/02 01:45:15;;;;;;;17.52;1.75;;;;;;;-146.25;86.36;52489.84;2102840;28;30164;-77
2023/02/02 01:46:36;;;;;;;19.17;2.22;;;;;;;-146.25;87.56;52437.13;2095003;28;39309;-77
2023/02/02 01:47:47;;;;;;;16.10;1.52;;;;;;;-146.25;87.96;52461.47;2090532;28;20041;-77
2023/02/02 01:48:58;;;;;;;21.83;2.10;;;;;;;-146.25;87.78;52477.69;2097293;28;27575;-77
2023/02/02 01:50:04;;;;;;;25.95;1.95;;;;;;;-146.25;88.43;52447.28;2104825;28;20040;-77
2023/02/02 01:51:12;;;;;;;27.20;2.70;;;;;;;-146.25;88.25;52445.25;2087242;28;30691;-76
2023/02/02 01:52:18;;;;;;;25.98;2.13;;;;;;;-146.25;88.27;52406.72;2090485;28;20808;-76
2023/02/02 01:53:21;;;;;;;30.67;2.25;;;;;;;-146.25;88.38;52449.31;2095866;28;25724;-76
2023/02/02 01:54:37;;;;;;;29.17;3.70;;;;;;;-146.25;88.66;52445.25;2096388;28;29861;-77
2023/02/02 01:55:41;;;;;;;23.63;2.00;;;;;;;-146.25;88.13;52441.19;2087540;28;20057;-76
2023/02/02 01:56:59;;;;;;;16.98;1.98;;;;;;;-146.25;88.12;52441.19;2090811;28;20050;-77
2023/02/02 01:58:14;;;;;;;20.17;1.85;;;;;;;-146.25;88.30;52445.25;2095364;28;26733;-76
2023/02/02 01:59:17;;;;;;;19.13;1.63;;;;;;;-146.25;88.42;52461.47;2088361;28;40387;-76
2023/02/02 02:00:24;;;;;;;27.77;2.20;;;;;;;-146.25;88.40;52443.22;2095573;28;37433;-75
2023/02/02 02:01:26;;;;;;;22.13;1.92;;;;;;;-146.25;88.18;52453.34;2104391;28;30910;-76
2023/02/02 02:02:30;;;;;;;26.65;2.55;;;;;;;-146.25;88.35;52439.16;2087802;28;20077;-76
2023/02/02 02:03:36;;;;;;;23.17;2.03;;;;;;;-146.25;87.58;52453.34;2089958;28;20076;-76
2023/02/02 02:04:41;;;;;;;17.60;2.10;;;;;;;-146.25;88.15;52455.38;2097177;28;20993;-77
2023/02/02 02:05:58;;;;;;;25.50;2.35;;;;;;;-146.25;87.38;52449.31;2089822;28;20087;-76
2023/02/02 02:07:01;;;;;;;27.40;2.35;;;;;;;-146.25;88.01;52445.25;2091590;28;30950;-76
2023/02/02 02:08:18;;;;;;;26.45;2.10;;;;;;;-146.25;87.87;52510.13;2099302;28;20947;-76
2023/02/02 02:09:20;;;;;;;25.45;2.00;;;;;;;-146.25;87.29;52459.44;2097157;28;20052;-76
2023/02/02 02:10:22;;;;;;;25.75;1.77;;;;;;;-146.25;87.47;52445.25;2096639;28;30649;-76
2023/02/02 02:11:24;;;;;;;17.15;1.92;;;;;;;-146.25;87.73;52445.25;2097346;28;20052;-77
2023/02/02 02:12:27;;;;;;;21.75;1.98;;;;;;;-146.25;87.04;52473.63;2080642;28;20038;-77
2023/02/02 02:16:50;;;;;;;27.08;2.08;;;;;;;-146.25;87.94;52449.31;2091189;28;20099;-75
2023/02/02 02:18:22;;;;;;;17.70;1.70;;;;;;;-146.25;87.91;52433.06;2094559;28;20052;-75
2023/02/02 02:26:32;;;;;;;20.25;1.80;;;;;;;-146.25;88.85;52445.25;2093149;28;20085;-76
2023/02/02 02:27:33;;;;;;;20.40;1.95;;;;;;;-146.25;90.64;52437.13;2097314;28;20091;-76
2023/02/02 02:29:02;;;;;;;17.45;1.80;;;;;;;-146.25;90.93;52429.03;2062485;28;20166;-76
2023/02/02 02:30:35;;;;;;;21.42;1.27;;;;;;;-146.25;90.98;52455.38;2076873;28;20055;-77
2023/02/02 02:32:00;;;;;;;19.35;2.25;;;;;;;-146.25;91.59;52457.41;2096462;28;20037;-76
2023/02/02 02:33:25;;;;;;;29.42;2.25;;;;;;;-146.25;91.67;52459.44;2104953;28;20095;-76
2023/02/02 02:34:45;;;;;;;18.65;2.30;;;;;;;-146.25;91.44;52461.47;2097201;28;20052;-76
2023/02/02 02:36:32;;;;;;;24.63;1.85;;;;;;;-146.25;92.13;52457.41;2099722;28;20057;-76
2023/02/02 02:37:51;;;;;;;21.20;2.45;;;;;;;-146.25;92.46;52461.47;2088753;28;20108;-76
2023/02/02 02:39:22;;;;;;;28.00;2.78;;;;;;;-146.25;92.89;52469.56;2098701;28;20049;-76
2023/02/02 02:40:35;;;;;;;21.83;2.22;;;;;;;-146.25;92.62;52398.59;2105111;28;32160;-76
2023/02/02 02:41:47;;;;;;;23.38;2.00;;;;;;;-146.25;92.85;52433.06;2096800;28;20041;-76
2023/02/02 02:42:57;;;;;;;21.10;2.13;;;;;;;-146.25;93.48;52465.53;2081884;28;20050;-75
2023/02/02 02:44:09;;;;;;;24.00;2.80;;;;;;;-146.25;93.44;52429.03;2082895;28;20851;-76
2023/02/02 02:45:12;;;;;;;26.10;2.53;;;;;;;-146.25;93.19;52479.72;2080597;28;20057;-76
2023/02/02 02:46:15;;;;;;;32.92;2.42;;;;;;;-146.25;93.19;52471.59;2082744;28;20111;-76
2023/02/02 02:47:20;;;;;;;23.10;3.05;;;;;;;-146.25;93.41;52437.13;2088056;28;24007;-76
2023/02/02 02:48:22;;;;;;;27.58;2.53;;;;;;;-146.25;93.95;52418.88;2072984;28;30515;-76
2023/02/02 02:49:24;;;;;;;22.55;2.53;;;;;;;-146.25;94.04;52439.16;2080444;28;28107;-76
2023/02/02 02:50:25;;;;;;;24.38;2.70;;;;;;;-146.25;94.00;52443.22;2088888;28;20045;-76
2023/02/02 02:51:47;;;;;;;26.70;2.78;;;;;;;-146.25;94.33;52445.25;2088843;28;20241;-76
2023/02/02 02:53:10;;;;;;;24.10;2.40;;;;;;;-146.25;93.92;52477.69;2100456;28;20040;-76
2023/02/02 02:54:28;;;;;;;21.92;2.28;;;;;;;-146.25;94.08;52447.28;2104909;28;22628;-76
2023/02/02 02:55:52;;;;;;;28.00;2.38;;;;;;;-146.25;94.42;52449.31;2106058;28;20925;-76
2023/02/02 02:57:27;;;;;;;30.55;2.53;;;;;;;-146.25;94.73;52493.91;2088604;28;20923;-76
2023/02/02 02:58:46;;;;;;;29.50;2.28;;;;;;;-146.25;94.29;52479.72;2062367;28;38147;-75
2023/02/02 03:00:29;;;;;;;30.95;2.35;;;;;;;-146.25;94.17;52441.19;2096975;28;20037;-76
2023/02/02 03:01:44;;;;;;;28.80;2.72;;;;;;;-146.25;94.70;52469.56;2079941;28;33361;-76
2023/02/02 03:03:09;;;;;;;36.97;2.55;;;;;;;-146.25;94.62;52461.47;2078086;28;42859;-76
2023/02/02 03:04:38;;;;;;;18.30;1.77;;;;;;;-146.25;94.40;52477.69;2083127;28;32689;-76
2023/02/02 03:06:27;;;;;;;26.35;2.03;;;;;;;-146.25;94.67;52475.66;2080009;28;39885;-76
2023/02/02 03:07:56;;;;;;;26.90;2.33;;;;;;;-146.25;94.75;52453.34;2046889;28;35891;-76
2023/02/02 03:09:07;;;;;;;29.67;2.47;;;;;;;-146.25;94.83;52465.53;2046359;28;37651;-76
2023/02/02 03:10:13;;;;;;;23.95;2.45;;;;;;;-146.25;94.49;52481.75;2037596;28;41976;-76
2023/02/02 03:11:16;;;;;;;27.38;2.58;;;;;;;-146.25;94.39;52467.56;2049511;28;20051;-76
2023/02/02 03:12:18;;;;;;;26.10;2.42;;;;;;;-146.25;94.44;52427.00;2054600;28;39644;-76
2023/02/02 03:13:20;;;;;;;26.00;1.98;;;;;;;-146.25;94.03;52451.31;2067715;28;40682;-76
2023/02/02 03:14:21;;;;;;;27.42;2.55;;;;;;;-146.25;94.42;52473.63;2079629;28;33193;-76
2023/02/02 03:15:23;;;;;;;30.05;2.53;;;;;;;-146.25;94.62;52469.56;2087262;28;40709;-76
2023/02/02 03:16:25;;;;;;;18.45;2.00;;;;;;;-146.25;94.31;52441.19;2096929;28;38404;-76
2023/02/02 03:17:27;;;;;;;29.10;2.78;;;;;;;-146.25;94.75;52477.69;2096685;28;39625;-76
2023/02/02 03:18:31;;;;;;;19.13;1.73;;;;;;;-146.25;95.04;52453.34;2097825;28;20041;-76
2023/02/02 03:19:33;;;;;;;23.38;2.33;;;;;;;-146.25;94.71;52457.41;2087375;28;40498;-76
2023/02/02 03:20:35;;;;;;;24.63;2.22;;;;;;;-146.25;94.93;52451.31;2088389;28;39291;-76
2023/02/02 03:21:36;;;;;;;30.52;2.53;;;;;;;-146.25;94.87;52471.59;2097020;28;20044;-76
2023/02/02 03:22:38;;;;;;;27.27;2.28;;;;;;;-146.25;94.92;52451.31;2096644;28;37494;-76
2023/02/02 03:23:40;;;;;;;21.90;2.00;;;;;;;-146.25;94.79;52435.09;2096732;28;39694;-76
2023/02/02 03:24:42;;;;;;;26.30;2.67;;;;;;;-146.25;94.77;52461.47;2097069;28;20049;-76
2023/02/02 03:25:44;;;;;;;26.20;2.55;;;;;;;-146.25;94.90;52451.31;2096460;28;40587;-76
2023/02/02 03:26:45;;;;;;;21.67;2.45;;;;;;;-146.25;95.02;52441.19;2097007;28;40367;-76
2023/02/02 03:27:47;;;;;;;31.92;3.55;;;;;;;-146.25;94.95;52441.19;2097575;28;20187;-76
2023/02/02 03:28:54;;;;;;;20.90;1.83;;;;;;;-146.25;95.23;52453.34;2096400;28;38514;-76
2023/02/02 03:29:55;;;;;;;23.27;2.20;;;;;;;-146.25;94.96;52441.19;2096864;28;41021;-76
2023/02/02 03:31:00;;;;;;;22.35;2.35;;;;;;;-146.25;94.98;52449.31;2096702;28;36854;-76
2023/02/02 03:32:02;;;;;;;28.17;2.67;;;;;;;-146.25;95.03;52431.06;2087523;28;38072;-75
2023/02/02 03:33:05;;;;;;;26.65;2.90;;;;;;;-146.25;94.96;52424.97;2088220;28;34898;-77
2023/02/02 03:34:07;;;;;;;22.30;2.00;;;;;;;-146.25;94.28;52467.56;2096407;28;38042;-76
2023/02/02 03:35:09;;;;;;;28.48;2.85;;;;;;;-146.25;94.50;52445.25;2096648;28;36288;-76
2023/02/02 03:36:11;;;;;;;26.35;2.50;;;;;;;-146.25;94.02;52469.56;2087948;28;39417;-76
2023/02/02 03:37:13;;;;;;;24.63;3.17;;;;;;;-146.25;94.05;52449.31;2087668;28;41140;-76
2023/02/02 03:38:15;;;;;;;26.30;2.10;;;;;;;-146.25;93.87;52457.41;2096981;28;36992;-76
2023/02/02 03:39:16;;;;;;;26.85;2.50;;;;;;;-146.25;93.49;52445.25;2097070;28;22991;-76
2023/02/02 03:40:18;;;;;;;26.55;2.45;;;;;;;-146.25;93.57;52457.41;2099331;28;40398;-76
2023/02/02 03:41:20;;;;;;;24.02;2.05;;;;;;;-146.25;93.35;52471.59;2105246;28;35882;-76
2023/02/02 03:42:22;;;;;;;27.35;2.42;;;;;;;-146.25;93.46;52453.34;2105717;28;20084;-76
2023/02/02 03:43:24;;;;;;;27.40;2.63;;;;;;;-146.25;93.55;52469.56;2104813;28;42020;-76
2023/02/02 03:44:25;;;;;;;27.83;2.38;;;;;;;-146.25;93.36;52461.47;2105357;28;32443;-76
2023/02/02 03:45:28;;;;;;;23.88;2.28;;;;;;;-146.25;93.64;52455.38;2105004;28;38780;-76
2023/02/02 03:46:29;;;;;;;27.08;2.50;;;;;;;-146.25;93.56;52469.56;2105267;28;37317;-76
2023/02/02 03:47:31;;;;;;;22.85;2.65;;;;;;;-146.25;93.57;52459.44;2105991;28;21033;-76
2023/02/02 03:48:36;;;;;;;27.63;2.50;;;;;;;-146.25;93.88;52449.31;2104756;28;41592;-76
2023/02/02 03:49:37;;;;;;;22.27;2.03;;;;;;;-146.25;93.87;52471.59;2105600;28;36405;-76
2023/02/02 03:50:39;;;;;;;20.30;2.00;;;;;;;-146.25;93.97;52469.56;2105961;28;20136;-76
2023/02/02 03:51:43;;;;;;;30.27;3.05;;;;;;;-146.25;94.13;52461.47;2105129;28;34823;-76
2023/02/02 03:52:47;;;;;;;17.23;1.98;;;;;;;-146.25;94.16;52467.56;2104930;28;37219;-76
2023/02/02 03:53:49;;;;;;;26.48;2.28;;;;;;;-146.25;94.24;52449.31;2105205;28;39858;-76
2023/02/02 03:54:50;;;;;;;23.73;1.98;;;;;;;-146.25;94.44;52451.31;2104691;28;40237;-76
2023/02/02 03:55:52;;;;;;;24.88;2.15;;;;;;;-146.25;94.32;52489.84;2104799;28;37040;-76
2023/02/02 03:56:54;;;;;;;21.48;2.45;;;;;;;-146.25;94.36;52465.53;2104709;28;38974;-76
2023/02/02 03:57:55;;;;;;;25.45;2.70;;;;;;;-146.25;94.62;52475.66;2105503;28;24217;-76
2023/02/02 03:59:00;;;;;;;19.00;2.17;;;;;;;-146.25;94.67;52433.06;2096517;28;20972;-76
2023/02/02 04:00:03;;;;;;;27.33;2.17;;;;;;;-146.25;94.77;52451.31;2096482;28;36153;-76
2023/02/02 04:01:13;;;;;;;23.42;2.35;;;;;;;-146.25;94.83;52437.13;2105266;28;20969;-76
2023/02/02 04:02:15;;;;;;;25.58;2.40;;;;;;;-146.25;95.05;52443.22;2105132;28;37868;-76
2023/02/02 04:03:17;;;;;;;27.60;2.20;;;;;;;-146.25;94.95;52449.31;2104766;28;39103;-76
2023/02/02 04:04:18;;;;;;;24.30;2.58;;;;;;;-146.25;95.08;52465.53;2104617;28;41294;-76
2023/02/02 04:05:20;;;;;;;35.65;2.72;;;;;;;-146.25;95.14;52437.13;2105819;28;20029;-76
2023/02/02 04:06:23;;;;;;;27.40;2.95;;;;;;;-146.25;95.13;52473.63;2104860;28;39152;-76
2023/02/02 04:07:27;;;;;;;22.48;2.63;;;;;;;-146.25;95.14;52495.94;2105123;28;37601;-76
2023/02/02 04:08:30;;;;;;;20.13;2.70;;;;;;;-146.25;94.97;52489.84;2095801;28;40007;-76
2023/02/02 04:09:34;;;;;;;21.90;2.20;;;;;;;-146.25;94.87;52461.47;2097770;28;20068;-76
2023/02/02 04:10:35;;;;;;;28.42;2.30;;;;;;;-146.25;95.22;52457.41;2096502;28;20040;-76
2023/02/02 04:11:42;;;;;;;21.95;3.00;;;;;;;-146.25;94.98;52510.13;2097235;28;20037;-76
2023/02/02 04:12:44;;;;;;;27.80;2.08;;;;;;;-146.25;95.00;52471.59;2105048;28;37622;-76
2023/02/02 04:13:46;;;;;;;32.88;2.83;;;;;;;-146.25;94.84;52467.56;2104810;28;36236;-76
2023/02/02 04:14:47;;;;;;;27.52;2.22;;;;;;;-146.25;94.77;52467.56;2104426;28;40637;-76
2023/02/02 04:15:58;;;;;;;35.38;3.10;;;;;;;-146.25;94.74;52473.63;2105998;28;20040;-76
2023/02/02 04:17:00;;;;;;;31.17;3.03;;;;;;;-146.25;94.71;52477.69;2105049;28;39094;-74
2023/02/02 04:18:02;;;;;;;25.02;2.30;;;;;;;-146.25;94.77;52445.25;2095707;28;40577;-76
2023/02/02 04:19:04;;;;;;;25.38;2.47;;;;;;;-146.25;94.54;52481.75;2095904;28;39120;-76
2023/02/02 04:20:06;;;;;;;27.30;2.15;;;;;;;-146.25;94.70;52457.41;2104784;28;40836;-76
2023/02/02 04:21:08;;;;;;;23.85;2.30;;;;;;;-146.25;94.74;52441.19;2105194;28;33400;-76
2023/02/02 04:22:10;;;;;;;24.20;3.00;;;;;;;-146.25;94.45;52451.31;2104951;28;36708;-76
2023/02/02 04:23:11;;;;;;;31.25;2.78;;;;;;;-146.25;94.82;52427.00;2104665;28;39380;-76
2023/02/02 04:24:14;;;;;;;22.40;2.60;;;;;;;-146.25;94.72;52447.28;2104885;28;31942;-74
2023/02/02 04:25:16;;;;;;;31.25;2.78;;;;;;;-146.25;94.72;52467.56;2104690;28;25736;-75
2023/02/02 04:26:20;;;;;;;25.20;2.80;;;;;;;-146.25;94.79;52429.03;2104395;28;41180;-76
2023/02/02 04:27:24;;;;;;;26.58;2.60;;;;;;;-146.25;94.84;52449.31;2104514;28;37017;-76
2023/02/02 04:28:27;;;;;;;29.67;2.53;;;;;;;-146.25;95.06;52441.19;2104510;28;38884;-76
2023/02/02 04:29:31;;;;;;;24.35;2.83;;;;;;;-146.25;95.14;52433.06;2105464;28;20049;-76
2023/02/02 04:30:32;;;;;;;26.00;2.55;;;;;;;-146.25;95.24;52449.31;2095319;28;20147;-76
2023/02/02 04:31:34;;;;;;;25.85;2.78;;;;;;;-146.25;95.03;52473.63;2095702;28;40557;-76
2023/02/02 04:32:36;;;;;;;25.75;2.45;;;;;;;-146.25;95.43;52453.34;2104724;28;36228;-76
2023/02/02 04:33:39;;;;;;;21.20;2.10;;;;;;;-146.25;95.54;52459.44;2104820;28;37561;-76
2023/02/02 04:34:41;;;;;;;34.28;3.15;;;;;;;-146.25;95.58;52467.56;2095878;28;36852;-75
2023/02/02 04:35:43;;;;;;;29.30;2.72;;;;;;;-146.25;95.45;52469.56;2087387;28;38176;-76
2023/02/02 04:36:45;;;;;;;26.63;2.38;;;;;;;-146.25;95.60;52424.97;2096196;28;36622;-76
2023/02/02 04:37:47;;;;;;;24.13;2.30;;;;;;;-146.25;95.43;52441.19;2104493;28;42045;-76
2023/02/02 04:38:50;;;;;;;22.45;2.80;;;;;;;-146.25;95.46;52473.63;2104520;28;39191;-76
2023/02/02 04:39:54;;;;;;;24.45;2.25;;;;;;;-146.25;95.55;52455.38;2104276;28;38284;-76
2023/02/02 04:41:04;;;;;;;30.60;2.70;;;;;;;-146.25;95.52;52473.63;2104550;28;36112;-76
2023/02/02 04:42:06;;;;;;;30.90;2.33;;;;;;;-146.25;95.85;52429.03;2104885;28;38389;-76
2023/02/02 04:43:08;;;;;;;21.77;1.98;;;;;;;-146.25;95.66;52477.69;2105029;28;40680;-76
2023/02/02 04:44:14;;;;;;;32.80;2.40;;;;;;;-146.25;96.00;52457.41;2095613;28;38531;-75
2023/02/02 04:45:16;;;;;;;23.92;2.28;;;;;;;-146.25;95.82;52473.63;2096984;28;38713;-75
2023/02/02 04:46:18;;;;;;;24.92;2.38;;;;;;;-146.25;95.92;52412.81;2104336;28;38546;-76
2023/02/02 04:47:20;;;;;;;26.38;2.55;;;;;;;-146.25;95.95;52453.34;2095701;28;41087;-76
2023/02/02 04:48:21;;;;;;;24.05;2.00;;;;;;;-146.25;95.96;52467.56;2095595;28;38065;-76
2023/02/02 04:49:26;;;;;;;26.85;3.35;;;;;;;-146.25;96.20;52485.81;2095204;28;37261;-76
2023/02/02 04:50:30;;;;;;;25.23;2.53;;;;;;;-146.25;96.43;52441.19;2095976;28;39506;-76
2023/02/02 04:51:34;;;;;;;27.70;2.47;;;;;;;-146.25;96.05;52487.81;2104313;28;43298;-75
2023/02/02 04:52:36;;;;;;;25.23;2.22;;;;;;;-146.25;96.43;52443.22;2095348;28;39023;-76
2023/02/02 04:53:39;;;;;;;26.92;2.33;;;;;;;-146.25;96.70;52416.84;2096137;28;36053;-75
2023/02/02 04:54:41;;;;;;;27.27;2.65;;;;;;;-146.25;96.96;52491.88;2104495;28;40855;-76
2023/02/02 04:55:42;;;;;;;23.60;2.85;;;;;;;-146.25;96.58;52487.81;2104294;28;39646;-76
2023/02/02 04:56:44;;;;;;;29.08;2.80;;;;;;;-146.25;96.64;52469.56;2104644;28;36145;-76
2023/02/02 04:57:46;;;;;;;24.20;2.58;;;;;;;-146.25;96.97;52487.81;2104747;28;39498;-76
2023/02/02 04:58:47;;;;;;;29.42;2.33;;;;;;;-146.25;97.73;52473.63;2104567;28;33080;-76
2023/02/02 04:59:49;;;;;;;32.45;3.00;;;;;;;-146.25;97.59;52469.56;2104519;28;40215;-76
2023/02/02 05:00:51;;;;;;;30.08;2.95;;;;;;;-146.25;97.77;52506.06;2105502;28;20072;-76
2023/02/02 05:01:53;;;;;;;34.72;2.75;;;;;;;-146.25;98.13;52491.88;2104469;28;40419;-76
2023/02/02 05:02:54;;;;;;;24.73;2.45;;;;;;;-146.25;97.85;52455.38;2104565;28;39997;-76
2023/02/02 05:03:57;;;;;;;27.77;2.25;;;;;;;-146.25;98.58;52457.41;2104757;28;36323;-76
2023/02/02 05:04:58;;;;;;;27.08;2.95;;;;;;;-146.25;98.51;52506.06;2104809;28;42695;-76
2023/02/02 05:06:07;;;;;;;32.42;2.58;;;;;;;-146.25;98.76;52469.56;2104521;28;39341;-76
2023/02/02 05:07:08;;;;;;;24.88;2.35;;;;;;;-146.25;98.50;52479.72;2095830;28;34452;-76
2023/02/02 05:08:10;;;;;;;31.83;2.85;;;;;;;-146.25;98.40;52512.16;2096120;28;42084;-75
2023/02/02 05:09:13;;;;;;;28.42;3.22;;;;;;;-146.25;98.58;52469.56;2105238;28;37496;-75